Time;durP1;ratioP1;P1;durP2;ratioP2;P2;SDS_P1;SDS_P2;PMS_P1;PMS_P2;Temp;Humidity;BMP_temperature;BMP_pressure;BME280_temperature;BME280_humidity;BME280_pressure;Samples;Min_cycle;Max_cycle;Signal;HPM_P1;HPM_P2
2022/12/20 00:00:44;;;;;;;13.20;8.30;;;9.90;89.80;;;;;;5008273;28;20350;-78
2022/12/20 00:03:10;;;;;;;11.77;7.63;;;9.90;90.40;;;;;;5008202;28;20040;-78
2022/12/20 00:05:40;;;;;;;11.43;7.28;;;9.90;90.50;;;;;;5002991;28;20042;-78
2022/12/20 00:08:06;;;;;;;14.73;7.60;;;9.90;90.70;;;;;;5003948;28;20073;-78
2022/12/20 00:10:36;;;;;;;11.38;7.68;;;9.90;90.90;;;;;;5003228;28;20478;-77
2022/12/20 00:13:02;;;;;;;13.02;7.68;;;9.90;90.90;;;;;;4998220;28;20402;-77
2022/12/20 00:15:28;;;;;;;12.95;7.38;;;9.90;91.10;;;;;;5009021;28;20042;-78
2022/12/20 00:17:53;;;;;;;12.02;7.30;;;9.80;91.10;;;;;;5002144;28;20397;-79
2022/12/20 00:20:19;;;;;;;12.48;7.40;;;9.80;91.30;;;;;;5006283;28;20117;-78
2022/12/20 00:22:45;;;;;;;13.27;7.60;;;9.90;91.30;;;;;;5003785;28;20034;-76
2022/12/20 00:25:10;;;;;;;12.30;7.82;;;9.90;91.40;;;;;;5003458;28;20041;-79
2022/12/20 00:27:36;;;;;;;14.07;7.60;;;9.90;91.30;;;;;;5003039;28;20041;-76
2022/12/20 00:30:03;;;;;;;10.63;7.50;;;9.90;91.20;;;;;;5003987;28;20109;-77
2022/12/20 00:32:29;;;;;;;11.43;7.32;;;9.90;91.20;;;;;;5002773;28;20529;-79
2022/12/20 00:34:54;;;;;;;12.45;7.88;;;9.90;91.00;;;;;;5009620;28;20053;-77
2022/12/20 00:37:20;;;;;;;10.60;7.20;;;9.90;91.00;;;;;;5006514;28;20038;-77
2022/12/20 00:39:46;;;;;;;12.25;7.80;;;9.90;90.90;;;;;;5003151;28;20045;-76
2022/12/20 00:42:11;;;;;;;10.57;6.78;;;9.90;91.00;;;;;;5005212;28;20033;-79
2022/12/20 00:44:37;;;;;;;10.25;7.35;;;9.80;90.80;;;;;;5004942;28;20046;-78
2022/12/20 00:47:02;;;;;;;10.45;7.18;;;9.90;90.80;;;;;;5000388;28;20034;-77
2022/12/20 00:49:28;;;;;;;11.73;7.80;;;9.90;90.50;;;;;;5002138;28;21044;-78
2022/12/20 00:51:54;;;;;;;11.27;7.30;;;9.90;90.40;;;;;;5001967;28;20065;-77
2022/12/20 00:54:19;;;;;;;12.40;7.57;;;9.90;90.10;;;;;;5003261;28;20050;-78
2022/12/20 00:56:45;;;;;;;11.95;7.60;;;9.80;90.00;;;;;;5006734;28;20538;-78
2022/12/20 00:59:10;;;;;;;10.07;7.03;;;9.90;90.00;;;;;;5002845;28;20037;-78
2022/12/20 01:01:36;;;;;;;12.68;7.55;;;9.90;89.80;;;;;;5000459;28;20038;-78
2022/12/20 01:04:02;;;;;;;11.98;7.75;;;9.90;89.60;;;;;;5008358;28;20057;-78
2022/12/20 01:06:29;;;;;;;10.32;7.22;;;9.90;89.60;;;;;;5005590;28;20096;-78
2022/12/20 01:08:56;;;;;;;10.07;6.65;;;9.90;89.50;;;;;;5005314;28;20065;-78
2022/12/20 01:11:27;;;;;;;10.93;6.65;;;9.90;89.30;;;;;;5002604;28;20049;-78
2022/12/20 01:13:55;;;;;;;11.23;6.93;;;10.00;89.20;;;;;;5009165;28;20387;-78
2022/12/20 01:16:27;;;;;;;12.70;7.32;;;10.00;89.00;;;;;;5003388;28;20096;-77
2022/12/20 01:18:53;;;;;;;13.48;7.55;;;10.00;88.80;;;;;;5006552;28;20045;-77
2022/12/20 01:21:21;;;;;;;11.85;6.80;;;10.10;88.70;;;;;;5005878;28;20148;-78
2022/12/20 01:23:47;;;;;;;10.32;6.38;;;10.10;88.60;;;;;;4996952;28;20086;-78
2022/12/20 01:26:15;;;;;;;12.32;7.10;;;10.10;88.40;;;;;;5004052;28;20482;-79
2022/12/20 01:28:43;;;;;;;12.93;6.70;;;10.10;88.30;;;;;;5006841;28;20477;-78
2022/12/20 01:31:11;;;;;;;11.63;6.65;;;10.10;88.40;;;;;;5001803;28;20029;-79
2022/12/20 01:33:37;;;;;;;13.15;6.45;;;10.10;88.40;;;;;;5009990;28;20117;-78
2022/12/20 01:36:09;;;;;;;9.05;6.22;;;10.10;88.40;;;;;;5001504;28;20038;-79
2022/12/20 01:38:35;;;;;;;11.32;6.38;;;10.10;88.30;;;;;;5004684;28;20026;-79
2022/12/20 01:41:01;;;;;;;9.50;6.50;;;10.10;88.10;;;;;;5002773;28;20038;-79
2022/12/20 01:43:57;;;;;;;9.98;6.22;;;10.10;88.20;;;;;;4997360;28;20034;-78
2022/12/20 01:46:28;;;;;;;9.68;6.50;;;10.10;88.10;;;;;;5000218;28;20038;-79
2022/12/20 01:49:13;;;;;;;10.23;6.35;;;10.20;88.10;;;;;;5002621;28;20482;-78
2022/12/20 01:51:45;;;;;;;12.57;7.18;;;10.20;88.20;;;;;;5001242;28;20523;-78
2022/12/20 01:54:17;;;;;;;9.27;6.10;;;10.20;88.20;;;;;;4995129;28;20042;-78
2022/12/20 01:56:46;;;;;;;10.20;6.70;;;10.30;88.30;;;;;;4990309;28;20045;-79
2022/12/20 01:59:12;;;;;;;11.27;6.32;;;10.30;88.40;;;;;;5000656;28;20076;-80
2022/12/20 02:01:40;;;;;;;10.85;7.03;;;10.30;88.60;;;;;;4999610;28;20057;-79
2022/12/20 02:04:06;;;;;;;15.50;7.25;;;10.30;88.70;;;;;;5002824;28;20033;-79
2022/12/20 02:06:32;;;;;;;10.55;6.72;;;10.20;88.90;;;;;;4996967;28;20437;-77
2022/12/20 02:09:00;;;;;;;13.43;6.88;;;10.20;89.10;;;;;;4996650;28;20474;-75
2022/12/20 02:11:34;;;;;;;10.07;6.70;;;10.20;89.20;;;;;;4996822;28;20083;-79
2022/12/20 02:14:13;;;;;;;10.50;6.40;;;10.20;89.10;;;;;;5000846;28;20577;-80
2022/12/20 02:17:04;;;;;;;9.35;6.32;;;10.30;89.00;;;;;;4994934;28;20030;-79
2022/12/20 02:19:41;;;;;;;11.60;6.97;;;10.20;89.00;;;;;;5001050;28;20029;-78
2022/12/20 02:22:25;;;;;;;9.65;6.50;;;10.20;88.90;;;;;;4992851;28;20371;-78
2022/12/20 02:25:10;;;;;;;11.48;6.47;;;10.30;88.70;;;;;;4998659;28;20038;-78
2022/12/20 02:27:49;;;;;;;10.45;5.78;;;10.40;88.50;;;;;;4999646;28;20517;-79
2022/12/20 02:30:27;;;;;;;10.52;6.13;;;10.40;88.30;;;;;;4996897;28;20691;-78
2022/12/20 02:33:02;;;;;;;9.70;5.75;;;10.40;88.10;;;;;;5001797;28;20045;-81
2022/12/20 02:35:30;;;;;;;9.77;6.10;;;10.40;87.90;;;;;;5004528;28;20091;-79
2022/12/20 02:37:59;;;;;;;8.95;5.88;;;10.50;87.80;;;;;;4996937;28;20034;-79
2022/12/20 02:40:31;;;;;;;9.88;6.47;;;10.50;87.80;;;;;;4992471;28;20042;-79
2022/12/20 02:43:00;;;;;;;10.43;6.00;;;10.50;87.80;;;;;;4996918;28;20578;-79
2022/12/20 02:45:32;;;;;;;10.88;5.95;;;10.60;88.10;;;;;;4997996;28;20049;-79
2022/12/20 02:48:08;;;;;;;9.50;6.10;;;10.50;88.30;;;;;;5000646;28;20371;-77
2022/12/20 02:50:47;;;;;;;10.55;6.25;;;10.50;88.70;;;;;;5009267;28;20045;-79
2022/12/20 02:53:13;;;;;;;18.20;7.15;;;10.50;89.00;;;;;;4997077;28;20146;-79
2022/12/20 02:55:47;;;;;;;10.77;6.65;;;10.40;89.40;;;;;;5009843;28;20540;-79
2022/12/20 02:58:25;;;;;;;9.93;6.35;;;10.40;89.60;;;;;;5006187;28;20061;-78
2022/12/20 03:00:53;;;;;;;11.30;6.90;;;10.40;89.80;;;;;;5001958;28;20034;-79
2022/12/20 03:03:22;;;;;;;9.88;6.35;;;10.40;89.90;;;;;;5003725;28;20175;-79
2022/12/20 03:05:54;;;;;;;10.15;5.97;;;10.40;89.60;;;;;;5002719;28;20572;-78
2022/12/20 03:08:22;;;;;;;10.13;6.40;;;10.40;89.30;;;;;;4999731;28;20030;-79
2022/12/20 03:10:49;;;;;;;12.27;6.13;;;10.50;89.10;;;;;;5004673;28;20244;-78
2022/12/20 03:13:15;;;;;;;8.82;5.25;;;10.60;89.00;;;;;;5004670;28;20119;-79
2022/12/20 03:15:40;;;;;;;10.38;6.38;;;10.60;88.70;;;;;;5003343;28;20477;-79
2022/12/20 03:18:06;;;;;;;10.35;5.93;;;10.60;88.60;;;;;;4998015;28;20022;-79
2022/12/20 03:20:32;;;;;;;10.13;5.78;;;10.60;88.60;;;;;;5006979;28;20057;-78
2022/12/20 03:22:58;;;;;;;12.20;5.90;;;10.60;88.60;;;;;;4999760;28;20030;-79
2022/12/20 03:25:24;;;;;;;9.88;5.70;;;10.60;88.60;;;;;;5001481;28;20429;-80
2022/12/20 03:27:50;;;;;;;8.95;6.35;;;10.60;88.60;;;;;;5000475;28;20676;-78
2022/12/20 03:30:15;;;;;;;8.80;5.90;;;10.60;88.70;;;;;;5003100;28;20123;-79
2022/12/20 03:32:41;;;;;;;9.20;5.55;;;10.50;88.60;;;;;;4998606;28;20040;-79
2022/12/20 03:35:07;;;;;;;10.57;6.28;;;10.60;88.60;;;;;;5007458;28;20050;-80
2022/12/20 03:37:33;;;;;;;9.23;5.40;;;10.50;88.40;;;;;;5004601;28;20485;-79
2022/12/20 03:39:58;;;;;;;9.18;5.07;;;10.60;88.00;;;;;;5004058;28;20100;-79
2022/12/20 03:42:24;;;;;;;8.68;5.10;;;10.60;87.80;;;;;;5002307;28;20291;-79
2022/12/20 03:44:50;;;;;;;9.88;5.18;;;10.60;87.30;;;;;;5003235;28;20038;-79
2022/12/20 03:47:16;;;;;;;12.75;5.93;;;10.70;87.10;;;;;;5001265;28;20783;-79
2022/12/20 03:49:41;;;;;;;7.13;5.03;;;10.80;86.80;;;;;;5001647;28;20026;-78
2022/12/20 03:52:08;;;;;;;8.25;4.90;;;10.80;86.60;;;;;;4998855;28;20041;-77
2022/12/20 03:54:34;;;;;;;11.68;5.30;;;10.80;86.70;;;;;;5002940;28;20126;-79
2022/12/20 03:57:00;;;;;;;12.15;5.30;;;10.80;86.70;;;;;;5003567;28;20288;-79
2022/12/20 03:59:25;;;;;;;10.25;5.38;;;10.80;86.70;;;;;;4997030;28;20411;-78
2022/12/20 04:01:51;;;;;;;8.43;5.10;;;10.90;86.80;;;;;;5001504;28;20065;-77
2022/12/20 04:04:16;;;;;;;7.68;5.20;;;10.90;86.60;;;;;;4998836;28;20860;-78
2022/12/20 04:06:42;;;;;;;9.73;4.90;;;10.90;86.60;;;;;;5002087;28;20064;-77
2022/12/20 04:09:08;;;;;;;10.13;5.07;;;11.00;86.50;;;;;;4999036;28;20030;-78
2022/12/20 04:11:33;;;;;;;10.88;5.10;;;11.00;86.50;;;;;;4997247;28;20466;-78
2022/12/20 04:13:59;;;;;;;9.85;5.47;;;10.90;86.40;;;;;;4991471;28;20169;-78
2022/12/20 04:16:27;;;;;;;8.73;5.00;;;10.90;86.50;;;;;;4999671;28;20077;-78
2022/12/20 04:18:53;;;;;;;10.40;4.95;;;11.00;86.60;;;;;;5001054;28;20524;-79
2022/12/20 04:21:23;;;;;;;8.07;4.88;;;10.90;86.70;;;;;;4996453;28;20121;-79
2022/12/20 04:23:49;;;;;;;10.40;5.38;;;10.90;86.50;;;;;;4997420;28;20034;-80
2022/12/20 04:26:16;;;;;;;9.95;5.03;;;10.90;86.40;;;;;;4999273;28;20096;-79
2022/12/20 04:28:41;;;;;;;8.90;5.18;;;10.80;86.80;;;;;;4987988;28;20121;-80
2022/12/20 04:31:07;;;;;;;8.70;4.57;;;10.80;86.80;;;;;;5001582;28;20593;-79
2022/12/20 04:33:33;;;;;;;11.35;5.65;;;10.90;86.70;;;;;;4994910;28;20045;-79
2022/12/20 04:35:58;;;;;;;10.65;5.28;;;10.90;86.50;;;;;;4998965;28;20046;-79
2022/12/20 04:38:24;;;;;;;8.75;4.80;;;10.80;86.40;;;;;;4987491;28;20041;-79
2022/12/20 04:40:54;;;;;;;10.00;5.20;;;10.80;86.40;;;;;;4995802;28;20435;-79
2022/12/20 04:43:20;;;;;;;9.52;4.68;;;10.80;86.70;;;;;;4996369;28;20045;-79
2022/12/20 04:45:47;;;;;;;9.85;5.32;;;10.80;86.70;;;;;;4990002;28;20046;-78
2022/12/20 04:48:14;;;;;;;8.80;4.93;;;10.80;86.70;;;;;;4991142;28;20031;-79
2022/12/20 04:50:40;;;;;;;9.52;4.97;;;10.80;86.60;;;;;;4992526;28;20050;-79
2022/12/20 04:55:50;;;;;;;9.35;5.20;;;10.80;86.60;;;;;;5006986;28;20596;-78
2022/12/20 04:58:16;;;;;;;11.13;5.10;;;10.80;86.40;;;;;;5025556;28;20018;-78
2022/12/20 05:00:41;;;;;;;9.30;4.82;;;10.80;86.60;;;;;;5024187;28;20049;-81
2022/12/20 05:03:07;;;;;;;8.82;4.72;;;10.90;86.50;;;;;;4999322;28;20108;-79
2022/12/20 05:05:33;;;;;;;9.93;4.93;;;10.90;86.20;;;;;;5000127;28;20569;-79
2022/12/20 05:07:58;;;;;;;8.25;4.43;;;10.90;86.20;;;;;;4994209;28;20038;-79
2022/12/20 05:10:24;;;;;;;7.55;4.63;;;10.90;86.20;;;;;;5002107;28;20049;-78
2022/12/20 05:12:50;;;;;;;9.23;4.75;;;10.90;86.10;;;;;;4997637;28;20170;-78
2022/12/20 05:15:16;;;;;;;11.40;5.07;;;10.90;86.10;;;;;;4999456;28;20065;-79
2022/12/20 05:17:41;;;;;;;9.75;5.10;;;10.90;85.90;;;;;;4999677;28;20057;-79
2022/12/20 05:20:08;;;;;;;11.50;5.20;;;10.90;86.00;;;;;;4998372;28;20073;-79
2022/12/20 05:28:02;;;;;;;7.90;4.50;;;10.90;85.60;;;;;;4998139;28;20044;-79
2022/12/20 05:30:27;;;;;;;8.40;4.60;;;10.90;85.50;;;;;;5001278;28;20064;-78
2022/12/20 05:32:53;;;;;;;10.88;4.75;;;11.00;85.50;;;;;;4999235;28;20306;-79
2022/12/20 05:35:19;;;;;;;11.18;4.78;;;11.00;85.30;;;;;;5000602;28;20528;-79
2022/12/20 05:37:45;;;;;;;8.43;4.63;;;11.00;85.30;;;;;;4999995;28;20041;-79
2022/12/20 05:40:11;;;;;;;9.80;4.97;;;11.00;85.20;;;;;;4996287;28;20498;-79
2022/12/20 05:42:36;;;;;;;9.10;4.75;;;11.00;85.20;;;;;;4998315;28;20030;-79
2022/12/20 05:45:03;;;;;;;8.63;4.80;;;11.10;85.00;;;;;;4997511;28;20129;-76
2022/12/20 05:47:32;;;;;;;7.80;4.25;;;11.00;84.80;;;;;;4999076;28;20375;-78
2022/12/20 05:49:59;;;;;;;9.20;4.65;;;11.00;84.90;;;;;;4999914;28;20034;-78
2022/12/20 05:52:25;;;;;;;8.20;4.65;;;11.10;85.00;;;;;;4998066;28;20585;-77
2022/12/20 05:54:50;;;;;;;6.97;3.78;;;11.10;84.90;;;;;;4999195;28;20050;-77
2022/12/20 05:57:16;;;;;;;9.00;4.50;;;11.10;84.80;;;;;;5000329;28;20129;-77
2022/12/20 05:59:42;;;;;;;8.95;4.22;;;11.10;84.50;;;;;;5002887;28;20109;-77
2022/12/20 06:02:09;;;;;;;9.25;4.25;;;11.20;84.20;;;;;;5000156;28;20039;-77
2022/12/20 06:04:35;;;;;;;9.95;3.85;;;11.20;84.20;;;;;;4995262;28;20503;-77
2022/12/20 06:07:01;;;;;;;8.25;3.65;;;11.20;83.90;;;;;;4981657;28;20049;-77
2022/12/20 06:09:27;;;;;;;8.60;3.70;;;11.20;83.90;;;;;;4997437;28;20042;-77
2022/12/20 06:11:52;;;;;;;9.82;4.10;;;11.20;83.90;;;;;;4998367;28;20046;-78
2022/12/20 06:14:18;;;;;;;7.85;4.10;;;11.20;84.10;;;;;;4999823;28;20105;-78
2022/12/20 06:16:44;;;;;;;8.73;4.25;;;11.20;84.00;;;;;;4994382;28;20514;-77
2022/12/20 06:19:09;;;;;;;7.90;3.75;;;11.20;83.90;;;;;;4998232;28;20108;-77
2022/12/20 06:21:35;;;;;;;8.65;4.20;;;11.30;84.00;;;;;;4996520;28;20091;-78
2022/12/20 06:24:01;;;;;;;8.75;3.85;;;11.30;84.10;;;;;;4995100;28;20046;-77
2022/12/20 06:26:26;;;;;;;8.55;3.95;;;11.20;84.70;;;;;;4997337;28;20074;-79
2022/12/20 06:28:55;;;;;;;7.13;3.92;;;11.20;84.90;;;;;;5000446;28;20112;-80
2022/12/20 06:31:21;;;;;;;8.52;3.92;;;11.20;85.30;;;;;;4985693;28;20049;-79
2022/12/20 06:33:46;;;;;;;7.47;3.88;;;11.10;85.30;;;;;;4995612;28;20525;-79
2022/12/20 06:36:12;;;;;;;9.95;3.90;;;11.10;85.20;;;;;;4997402;28;20100;-78
2022/12/20 06:38:38;;;;;;;8.48;3.58;;;11.10;85.50;;;;;;4989268;28;20042;-79
2022/12/20 06:41:03;;;;;;;10.30;4.45;;;11.10;85.70;;;;;;4994030;28;20034;-79
2022/12/20 06:43:29;;;;;;;8.65;4.18;;;11.00;86.00;;;;;;4995797;28;20379;-77
2022/12/20 06:45:55;;;;;;;9.93;4.30;;;11.00;86.30;;;;;;4999031;28;20046;-76
2022/12/20 06:48:20;;;;;;;9.05;4.68;;;11.00;86.60;;;;;;4998135;28;20046;-77
2022/12/20 06:50:49;;;;;;;7.88;4.38;;;10.90;87.10;;;;;;5000919;28;20052;-78
2022/12/20 06:53:15;;;;;;;8.10;4.68;;;10.80;87.40;;;;;;4999800;28;20448;-78
2022/12/20 06:55:41;;;;;;;8.02;4.50;;;10.80;87.50;;;;;;4993687;28;20052;-78
2022/12/20 06:58:06;;;;;;;9.82;4.25;;;10.80;87.80;;;;;;5006344;28;20042;-77
2022/12/20 07:00:32;;;;;;;10.02;4.43;;;10.80;88.00;;;;;;5002150;28;20135;-78
2022/12/20 07:02:58;;;;;;;8.57;5.20;;;10.80;88.10;;;;;;4998423;28;20121;-78
2022/12/20 07:05:24;;;;;;;9.25;4.40;;;10.70;88.60;;;;;;5001052;28;20129;-77
2022/12/20 07:07:50;;;;;;;10.77;4.70;;;10.70;88.90;;;;;;5005044;28;20161;-78
2022/12/20 07:10:16;;;;;;;8.60;4.25;;;10.60;89.20;;;;;;5010897;28;20038;-77
2022/12/20 07:12:41;;;;;;;8.88;4.35;;;10.60;89.40;;;;;;5003756;28;20055;-79
2022/12/20 07:15:08;;;;;;;9.68;4.63;;;10.60;89.60;;;;;;5015540;28;20216;-78
2022/12/20 07:17:33;;;;;;;12.20;4.95;;;10.60;89.80;;;;;;4999044;28;20534;-79
2022/12/20 07:19:59;;;;;;;11.23;5.28;;;10.50;90.10;;;;;;5000509;28;20038;-80
2022/12/20 07:22:25;;;;;;;9.02;4.50;;;10.50;90.50;;;;;;5003230;28;20034;-78
2022/12/20 07:24:51;;;;;;;12.02;4.70;;;10.50;90.50;;;;;;5014665;28;20483;-79
2022/12/20 07:27:17;;;;;;;11.43;5.10;;;10.50;90.80;;;;;;5013562;28;20431;-78
2022/12/20 07:29:43;;;;;;;10.85;5.43;;;10.40;91.00;;;;;;5012834;28;20025;-80
2022/12/20 07:32:11;;;;;;;12.20;5.20;;;10.40;91.20;;;;;;5010695;28;20077;-78
2022/12/20 07:34:37;;;;;;;11.75;5.35;;;10.40;91.30;;;;;;5007910;28;20733;-79
2022/12/20 07:37:03;;;;;;;11.02;5.10;;;10.30;91.40;;;;;;5003161;28;20056;-79
2022/12/20 07:39:29;;;;;;;13.07;5.15;;;10.30;91.60;;;;;;5001043;28;20210;-79
2022/12/20 07:41:55;;;;;;;10.65;6.55;;;10.30;91.60;;;;;;5003870;28;20190;-76
2022/12/20 07:44:21;;;;;;;11.57;6.07;;;10.30;91.70;;;;;;5005119;28;20037;-82
2022/12/20 07:46:47;;;;;;;8.73;5.13;;;10.30;91.60;;;;;;4997272;28;20034;-73
2022/12/20 07:49:13;;;;;;;10.63;4.80;;;10.30;91.60;;;;;;5003962;28;20059;-75
2022/12/20 07:51:47;;;;;;;10.55;4.93;;;10.30;91.70;;;;;;4993504;28;20078;-74
2022/12/20 07:54:15;;;;;;;13.15;5.32;;;10.30;91.70;;;;;;4998074;28;20046;-75
2022/12/20 07:56:44;;;;;;;9.55;4.68;;;10.30;91.70;;;;;;4998593;28;20394;-74
2022/12/20 07:59:13;;;;;;;10.35;4.63;;;10.30;91.80;;;;;;5001282;28;20038;-75
2022/12/20 08:01:41;;;;;;;11.20;5.25;;;10.20;91.80;;;;;;5006751;28;20494;-75
2022/12/20 08:04:13;;;;;;;9.10;4.93;;;10.30;91.80;;;;;;5002874;28;20165;-75
2022/12/20 08:06:40;;;;;;;10.18;5.18;;;10.20;91.70;;;;;;5002059;28;20053;-74
2022/12/20 08:09:07;;;;;;;10.98;5.50;;;10.30;91.70;;;;;;5005231;28;20501;-73
2022/12/20 08:11:36;;;;;;;9.93;4.93;;;10.30;91.60;;;;;;4999738;28;20564;-74
2022/12/20 08:14:03;;;;;;;10.93;4.85;;;10.30;91.50;;;;;;5002639;28;20038;-74
2022/12/20 08:16:30;;;;;;;10.18;5.72;;;10.20;91.50;;;;;;5003906;28;20026;-75
2022/12/20 08:18:55;;;;;;;8.63;5.15;;;10.30;91.60;;;;;;5005440;28;20048;-75
2022/12/20 08:21:21;;;;;;;9.23;4.82;;;10.30;91.60;;;;;;5006494;28;20042;-75
2022/12/20 08:23:47;;;;;;;10.02;5.90;;;10.30;91.60;;;;;;4999010;28;20065;-75
2022/12/20 08:26:13;;;;;;;13.60;7.35;;;10.30;91.60;;;;;;5002377;28;20104;-74
2022/12/20 08:28:39;;;;;;;8.73;5.60;;;10.30;91.60;;;;;;5000739;28;20042;-73
2022/12/20 08:31:06;;;;;;;15.48;8.63;;;10.30;91.50;;;;;;4979822;28;20483;-75
2022/12/20 08:33:33;;;;;;;10.50;6.90;;;10.30;91.60;;;;;;4994939;28;20124;-73
2022/12/20 08:36:01;;;;;;;12.35;7.65;;;10.30;91.50;;;;;;4992285;28;20046;-74
2022/12/20 08:38:30;;;;;;;11.30;7.40;;;10.40;91.50;;;;;;4984898;28;20325;-72
2022/12/20 08:41:19;;;;;;;11.23;6.20;;;10.30;91.50;;;;;;4995895;28;20482;-73
2022/12/20 08:43:45;;;;;;;9.23;6.63;;;10.30;91.60;;;;;;4986203;28;20469;-75
2022/12/20 08:46:11;;;;;;;12.20;5.95;;;10.40;91.70;;;;;;5001421;28;20037;-74
2022/12/20 08:48:37;;;;;;;10.50;5.50;;;10.40;91.80;;;;;;5004083;28;20696;-76
2022/12/20 08:51:08;;;;;;;10.65;5.22;;;10.40;91.70;;;;;;4999761;28;20048;-76
2022/12/20 08:53:35;;;;;;;20.75;6.13;;;10.40;91.80;;;;;;5002649;28;20034;-75
2022/12/20 08:56:09;;;;;;;15.35;5.88;;;10.40;91.90;;;;;;5005193;28;20046;-74
2022/12/20 08:58:35;;;;;;;9.98;6.20;;;10.40;92.00;;;;;;5000881;28;20105;-72
2022/12/20 09:01:03;;;;;;;9.23;5.43;;;10.50;92.10;;;;;;5001612;28;20042;-73
2022/12/20 09:03:30;;;;;;;9.85;5.22;;;10.50;92.10;;;;;;5002422;28;20037;-71
2022/12/20 09:05:57;;;;;;;10.48;5.35;;;10.60;92.20;;;;;;4985986;28;20046;-72
2022/12/20 09:08:22;;;;;;;10.60;6.15;;;10.60;92.20;;;;;;4992827;28;20476;-71
2022/12/20 09:10:48;;;;;;;10.07;5.32;;;10.60;92.20;;;;;;5000146;28;20034;-72
2022/12/20 09:13:14;;;;;;;10.68;6.35;;;10.60;92.20;;;;;;4987813;28;20077;-73
2022/12/20 09:15:41;;;;;;;11.68;6.10;;;10.60;92.30;;;;;;4994732;28;20070;-71
2022/12/20 09:18:06;;;;;;;13.68;5.70;;;10.60;92.40;;;;;;4994415;28;20040;-73
2022/12/20 09:20:32;;;;;;;10.02;6.28;;;10.60;92.40;;;;;;4994223;28;20030;-72
2022/12/20 09:22:58;;;;;;;13.55;6.25;;;10.60;92.40;;;;;;4987150;28;20104;-72
2022/12/20 09:25:25;;;;;;;9.52;6.32;;;10.50;92.40;;;;;;4989692;28;20041;-73
2022/12/20 09:27:51;;;;;;;11.65;5.97;;;10.60;92.50;;;;;;4990538;28;20046;-73
2022/12/20 09:30:17;;;;;;;12.27;6.25;;;10.50;92.40;;;;;;5001143;28;20053;-74
2022/12/20 09:32:43;;;;;;;10.73;5.82;;;10.50;92.60;;;;;;4994421;28;20041;-74
2022/12/20 09:35:08;;;;;;;11.15;6.65;;;10.50;92.60;;;;;;4991971;28;20038;-71
2022/12/20 09:37:34;;;;;;;10.43;6.45;;;10.50;92.60;;;;;;4995739;28;20514;-71
2022/12/20 09:40:00;;;;;;;11.52;6.45;;;10.50;92.80;;;;;;4995721;28;20034;-73
2022/12/20 09:42:27;;;;;;;11.65;6.53;;;10.50;92.80;;;;;;4994808;28;20496;-71
2022/12/20 09:45:21;;;;;;;13.05;7.07;;;10.40;92.90;;;;;;4995977;28;20038;-72
2022/12/20 09:47:46;;;;;;;10.98;6.25;;;10.40;93.00;;;;;;4986197;28;20042;-71
2022/12/20 09:50:16;;;;;;;13.18;7.47;;;10.50;92.90;;;;;;4999801;28;20763;-71
2022/12/20 09:53:05;;;;;;;11.43;7.05;;;10.50;93.00;;;;;;4990578;28;20556;-72
2022/12/20 09:55:35;;;;;;;11.77;6.95;;;10.50;93.10;;;;;;4992270;28;20259;-73
2022/12/20 09:58:06;;;;;;;14.05;7.88;;;10.50;93.10;;;;;;4990594;28;20030;-72
2022/12/20 10:00:41;;;;;;;13.82;8.30;;;10.50;93.20;;;;;;4996520;28;20556;-73
2022/12/20 10:03:18;;;;;;;14.25;8.50;;;10.60;93.20;;;;;;5000973;28;20116;-72
2022/12/20 10:05:52;;;;;;;13.40;7.35;;;10.60;93.20;;;;;;4989382;28;20041;-73
2022/12/20 10:08:41;;;;;;;13.25;7.28;;;10.60;93.20;;;;;;4994456;28;20079;-73
2022/12/20 10:11:51;;;;;;;14.25;7.38;;;10.60;93.20;;;;;;4998937;28;20405;-73
2022/12/20 10:14:48;;;;;;;12.02;6.90;;;10.60;93.10;;;;;;4995983;28;20038;-73
2022/12/20 10:17:21;;;;;;;14.55;7.28;;;10.60;93.10;;;;;;4995879;28;20434;-72
2022/12/20 10:20:02;;;;;;;15.43;7.80;;;10.60;93.10;;;;;;4998623;28;20508;-71
2022/12/20 10:23:02;;;;;;;12.05;7.63;;;10.60;93.10;;;;;;5003972;28;20037;-71
2022/12/20 10:25:33;;;;;;;13.00;7.22;;;10.60;93.10;;;;;;4983205;28;20207;-72
2022/12/20 10:28:03;;;;;;;13.95;6.80;;;10.60;93.20;;;;;;4989402;28;20040;-73
2022/12/20 10:30:31;;;;;;;12.68;6.50;;;10.60;93.30;;;;;;5001973;28;20039;-73
2022/12/20 10:32:57;;;;;;;14.13;6.45;;;10.60;93.40;;;;;;4996229;28;20040;-73
2022/12/20 10:35:27;;;;;;;14.20;7.00;;;10.60;93.40;;;;;;4989800;28;20217;-74
2022/12/20 10:38:11;;;;;;;13.30;6.95;;;10.60;93.30;;;;;;5000283;28;20113;-74
2022/12/20 10:41:00;;;;;;;13.38;6.40;;;10.60;93.40;;;;;;4994112;28;20026;-73
2022/12/20 10:43:27;;;;;;;12.27;7.63;;;10.60;93.40;;;;;;4995077;28;20446;-74
2022/12/20 10:45:59;;;;;;;15.85;7.07;;;10.70;93.50;;;;;;4997253;28;20115;-74
2022/12/20 10:48:36;;;;;;;13.20;7.25;;;10.70;93.40;;;;;;5004062;28;20036;-73
2022/12/20 10:51:08;;;;;;;12.85;8.20;;;10.70;93.40;;;;;;4999564;28;20599;-74
2022/12/20 10:53:35;;;;;;;13.45;8.10;;;10.70;93.40;;;;;;4999075;28;20100;-72
2022/12/20 10:56:10;;;;;;;17.00;9.45;;;10.70;93.40;;;;;;5007956;28;20054;-72
2022/12/20 10:58:36;;;;;;;14.85;9.05;;;10.80;93.50;;;;;;5008548;28;20693;-73
2022/12/20 11:01:17;;;;;;;37.58;26.73;;;10.80;93.40;;;;;;5008231;28;20038;-73
2022/12/20 11:04:04;;;;;;;41.95;24.02;;;10.80;93.30;;;;;;5006393;28;20042;-72
2022/12/20 11:06:36;;;;;;;45.00;27.77;;;10.70;93.30;;;;;;5013061;28;20613;-71
2022/12/20 11:09:22;;;;;;;16.80;11.18;;;10.70;93.30;;;;;;5009401;28;20034;-73
2022/12/20 11:11:57;;;;;;;14.35;9.20;;;10.70;93.30;;;;;;5007059;28;20034;-72
2022/12/20 11:14:23;;;;;;;14.88;9.57;;;10.70;93.40;;;;;;5009227;28;20045;-72
2022/12/20 11:16:51;;;;;;;15.75;8.55;;;10.70;93.50;;;;;;4999677;28;20049;-72
2022/12/20 11:19:20;;;;;;;12.48;7.90;;;10.70;93.60;;;;;;5004951;28;20037;-71
2022/12/20 11:21:53;;;;;;;11.73;7.53;;;10.70;93.60;;;;;;5001239;28;20766;-72
2022/12/20 11:24:38;;;;;;;13.85;7.63;;;10.70;93.70;;;;;;4999900;28;20038;-71
2022/12/20 11:27:47;;;;;;;14.38;8.07;;;10.70;93.70;;;;;;4996476;28;20061;-72
2022/12/20 11:30:26;;;;;;;14.48;7.93;;;10.60;93.70;;;;;;4999623;28;20042;-72
2022/12/20 11:33:06;;;;;;;14.27;7.82;;;10.70;93.80;;;;;;5003666;28;20054;-72
2022/12/20 11:35:54;;;;;;;14.40;8.98;;;10.70;93.80;;;;;;5004510;28;20102;-72
2022/12/20 11:38:46;;;;;;;12.30;7.30;;;10.60;93.80;;;;;;5000136;28;20489;-71
2022/12/20 11:41:54;;;;;;;13.50;9.23;;;10.70;93.90;;;;;;5010002;28;20048;-73
2022/12/20 11:44:47;;;;;;;16.35;9.55;;;10.70;94.00;;;;;;5007210;28;20041;-73
2022/12/20 11:47:18;;;;;;;14.48;8.85;;;10.70;93.90;;;;;;5005948;28;20390;-72
2022/12/20 11:50:12;;;;;;;15.10;9.10;;;10.70;93.90;;;;;;5015665;28;20037;-73
2022/12/20 11:52:50;;;;;;;13.82;8.95;;;10.70;93.90;;;;;;5009022;28;20042;-72
2022/12/20 11:55:45;;;;;;;13.00;8.23;;;10.70;93.90;;;;;;5000572;28;20061;-72
2022/12/20 11:58:36;;;;;;;13.98;8.45;;;10.60;94.00;;;;;;5010717;28;20033;-72
2022/12/20 12:01:38;;;;;;;13.77;8.65;;;10.60;94.00;;;;;;5009478;28;20030;-74
2022/12/20 12:04:33;;;;;;;11.95;7.95;;;10.60;94.00;;;;;;5015240;28;20038;-72
2022/12/20 12:07:05;;;;;;;14.65;8.32;;;10.60;94.00;;;;;;5004902;28;20679;-73
2022/12/20 12:09:59;;;;;;;11.82;8.23;;;10.60;94.00;;;;;;5000236;28;20038;-74
2022/12/20 12:12:36;;;;;;;12.63;8.57;;;10.60;94.10;;;;;;4999691;28;20092;-72
2022/12/20 12:15:30;;;;;;;11.68;7.60;;;10.60;94.20;;;;;;5012653;28;20393;-72
2022/12/20 12:18:14;;;;;;;14.93;8.90;;;10.60;94.20;;;;;;5002588;28;20046;-71
2022/12/20 12:20:47;;;;;;;12.07;8.63;;;10.60;94.10;;;;;;5000863;28;20544;-72
2022/12/20 12:23:44;;;;;;;12.25;8.60;;;10.50;94.20;;;;;;4986917;28;20045;-72
2022/12/20 12:26:34;;;;;;;13.30;8.60;;;10.50;94.10;;;;;;4996859;28;20038;-73
2022/12/20 12:29:22;;;;;;;15.30;9.43;;;10.60;94.20;;;;;;5005615;28;20045;-73
2022/12/20 12:31:56;;;;;;;13.75;9.32;;;10.50;94.20;;;;;;5000508;28;20038;-73
2022/12/20 12:34:31;;;;;;;22.38;14.63;;;10.50;94.30;;;;;;4995351;28;20486;-74
2022/12/20 12:37:33;;;;;;;36.88;24.60;;;10.50;94.30;;;;;;5000785;28;20045;-73
2022/12/20 12:40:21;;;;;;;32.63;19.77;;;10.50;94.30;;;;;;5003641;28;20048;-73
2022/12/20 12:42:52;;;;;;;52.50;36.10;;;10.50;94.30;;;;;;5008930;28;20803;-73
2022/12/20 12:45:30;;;;;;;33.53;24.88;;;10.50;94.40;;;;;;4996392;28;20379;-74
2022/12/20 12:47:58;;;;;;;32.30;23.77;;;10.50;94.30;;;;;;5000203;28;20042;-73
2022/12/20 12:50:31;;;;;;;17.23;12.63;;;10.40;94.40;;;;;;4999402;28;20034;-73
2022/12/20 12:53:26;;;;;;;24.45;17.27;;;10.50;94.40;;;;;;5001602;28;20088;-72
2022/12/20 12:55:53;;;;;;;21.27;17.03;;;10.50;94.30;;;;;;5003276;28;20058;-72
2022/12/20 12:58:22;;;;;;;15.45;11.55;;;10.50;94.30;;;;;;5001953;28;20173;-72
2022/12/20 13:00:53;;;;;;;14.55;12.77;;;10.50;94.30;;;;;;4996932;28;20052;-74
2022/12/20 13:03:40;;;;;;;17.58;13.93;;;10.50;94.40;;;;;;5000625;28;20034;-73
2022/12/20 13:06:28;;;;;;;15.93;11.95;;;10.50;94.30;;;;;;5004120;28;20061;-73